Time;durP1;ratioP1;P1;durP2;ratioP2;P2;SDS_P1;SDS_P2;PMS_P1;PMS_P2;Temp;Humidity;BMP_temperature;BMP_pressure;BME280_temperature;BME280_humidity;BME280_pressure;Samples;Min_cycle;Max_cycle;Signal;HPM_P1;HPM_P2
2022/07/02 00:00:28;;;;;;;8.00;4.10;;;;;;;;;;4958301;28;20055;-69
2022/07/02 00:03:23;;;;;;;7.00;4.55;;;;;;;;;;4970782;28;20046;-69
2022/07/02 00:06:09;;;;;;;12.00;4.93;;;;;;;;;;4998809;28;20489;-69
2022/07/02 00:08:55;;;;;;;6.28;4.25;;;;;;;;;;4962570;28;20025;-68
2022/07/02 00:11:41;;;;;;;7.93;4.47;;;;;;;;;;4971228;28;20035;-69
2022/07/02 00:14:26;;;;;;;7.78;5.05;;;;;;;;;;4959800;28;20432;-70
2022/07/02 00:17:12;;;;;;;12.88;6.30;;;;;;;;;;4972356;28;20033;-69
2022/07/02 00:19:58;;;;;;;8.65;5.82;;;;;;;;;;4968164;28;20020;-70
2022/07/02 00:22:45;;;;;;;8.75;3.85;;;;;;;;;;4951595;28;20488;-76
2022/07/02 00:25:33;;;;;;;9.15;4.07;;;;;;;;;;4959013;28;20030;-84
2022/07/02 00:28:19;;;;;;;7.25;3.22;;;;;;;;;;4960814;28;20502;-84
2022/07/02 00:31:05;;;;;;;5.85;4.30;;;;;;;;;;4952240;28;20114;-84
2022/07/02 00:33:51;;;;;;;7.65;4.18;;;;;;;;;;4952669;28;20028;-84
2022/07/02 00:36:37;;;;;;;5.57;3.40;;;;;;;;;;4958479;28;20168;-85
2022/07/02 00:39:23;;;;;;;4.53;2.92;;;;;;;;;;4954458;28;20031;-84
2022/07/02 00:42:09;;;;;;;6.15;3.35;;;;;;;;;;4947157;28;20039;-75
2022/07/02 00:44:55;;;;;;;7.65;3.67;;;;;;;;;;4954624;28;20030;-74
2022/07/02 00:47:41;;;;;;;5.93;3.13;;;;;;;;;;4948833;28;20113;-74
2022/07/02 00:50:26;;;;;;;5.15;3.50;;;;;;;;;;4944091;28;20458;-74
2022/07/02 00:53:12;;;;;;;7.65;3.47;;;;;;;;;;4951598;28;20121;-75
2022/07/02 00:55:58;;;;;;;6.47;3.20;;;;;;;;;;4985349;28;20055;-74
2022/07/02 00:58:43;;;;;;;7.90;3.72;;;;;;;;;;4992785;28;20019;-74
2022/07/02 01:01:29;;;;;;;3.97;2.60;;;;;;;;;;4953008;28;20047;-72
2022/07/02 01:04:15;;;;;;;4.78;2.33;;;;;;;;;;4945472;28;20019;-72
2022/07/02 01:07:02;;;;;;;5.07;2.53;;;;;;;;;;4989962;28;20023;-73
2022/07/02 01:12:52;;;;;;;4.13;2.38;;;;;;;;;;4953369;28;20039;-74
2022/07/02 01:15:39;;;;;;;3.30;2.00;;;;;;;;;;4942939;28;20034;-74
2022/07/02 01:18:24;;;;;;;3.03;2.25;;;;;;;;;;4956243;28;20039;-72
2022/07/02 01:21:10;;;;;;;4.70;2.13;;;;;;;;;;4950388;28;20097;-74
2022/07/02 01:23:56;;;;;;;3.72;2.30;;;;;;;;;;4947500;28;20475;-74
2022/07/02 01:26:42;;;;;;;6.47;2.45;;;;;;;;;;4954083;28;20440;-74
2022/07/02 01:29:27;;;;;;;4.88;2.40;;;;;;;;;;4951511;28;20080;-74
2022/07/02 01:32:13;;;;;;;5.53;3.08;;;;;;;;;;4951342;28;20046;-75
2022/07/02 01:35:03;;;;;;;8.98;2.60;;;;;;;;;;4954704;28;20016;-72
2022/07/02 01:37:49;;;;;;;5.80;2.17;;;;;;;;;;4951420;28;20033;-74
2022/07/02 01:40:36;;;;;;;3.70;1.95;;;;;;;;;;4950954;28;20043;-75
2022/07/02 01:43:22;;;;;;;6.30;2.03;;;;;;;;;;4949083;28;20406;-74
2022/07/02 01:46:07;;;;;;;3.45;2.22;;;;;;;;;;4949412;28;20034;-74
2022/07/02 01:48:53;;;;;;;4.57;2.67;;;;;;;;;;4953547;28;20058;-75
2022/07/02 01:51:39;;;;;;;4.60;2.78;;;;;;;;;;4949758;28;20035;-74
2022/07/02 01:54:25;;;;;;;5.90;2.38;;;;;;;;;;4951446;28;20039;-73
2022/07/02 01:57:12;;;;;;;5.70;2.15;;;;;;;;;;4959926;28;20047;-72
2022/07/02 01:59:57;;;;;;;4.88;2.65;;;;;;;;;;4952645;28;20114;-74
2022/07/02 02:02:43;;;;;;;4.15;2.20;;;;;;;;;;4974055;28;20394;-73
2022/07/02 02:05:28;;;;;;;4.47;2.08;;;;;;;;;;4962780;28;20120;-72
2022/07/02 02:08:14;;;;;;;4.72;2.83;;;;;;;;;;4950223;28;20109;-74
2022/07/02 02:11:00;;;;;;;4.03;2.30;;;;;;;;;;4954999;28;20043;-72
2022/07/02 02:13:45;;;;;;;3.33;1.98;;;;;;;;;;4943717;28;20046;-72
2022/07/02 02:16:31;;;;;;;2.90;2.00;;;;;;;;;;4954661;28;20032;-85
2022/07/02 02:19:17;;;;;;;3.42;2.38;;;;;;;;;;4952261;28;20106;-83
2022/07/02 02:22:03;;;;;;;3.65;2.10;;;;;;;;;;4947568;28;20058;-86
2022/07/02 02:24:48;;;;;;;5.90;2.15;;;;;;;;;;4948428;28;20031;-85
2022/07/02 02:27:34;;;;;;;7.20;2.00;;;;;;;;;;4951279;28;20023;-84
2022/07/02 02:30:19;;;;;;;3.28;1.52;;;;;;;;;;4946801;28;20019;-74
2022/07/02 02:33:05;;;;;;;3.45;1.90;;;;;;;;;;4975360;28;20032;-72
2022/07/02 02:35:50;;;;;;;2.85;1.80;;;;;;;;;;4961124;28;20123;-71
2022/07/02 02:38:36;;;;;;;2.95;1.90;;;;;;;;;;4950367;28;20547;-73
2022/07/02 02:41:22;;;;;;;5.55;1.73;;;;;;;;;;4960690;28;20071;-73
2022/07/02 02:44:07;;;;;;;2.97;1.98;;;;;;;;;;4959579;28;20023;-71
2022/07/02 02:46:53;;;;;;;2.95;1.85;;;;;;;;;;4948923;28;20030;-72
2022/07/02 02:49:38;;;;;;;4.68;2.10;;;;;;;;;;4942214;28;20051;-75
2022/07/02 02:52:24;;;;;;;6.60;1.98;;;;;;;;;;4990923;28;20044;-75
2022/07/02 02:55:10;;;;;;;3.67;2.20;;;;;;;;;;4941039;28;20429;-75
2022/07/02 02:57:55;;;;;;;4.43;2.10;;;;;;;;;;4949692;28;20023;-74
2022/07/02 03:00:41;;;;;;;3.90;2.05;;;;;;;;;;4953090;28;20038;-74
2022/07/02 03:03:26;;;;;;;3.58;1.70;;;;;;;;;;4954282;28;20040;-75
2022/07/02 03:06:12;;;;;;;3.97;2.45;;;;;;;;;;4950248;28;20042;-74
2022/07/02 03:08:58;;;;;;;3.42;1.92;;;;;;;;;;4943830;28;20390;-87
2022/07/02 03:11:44;;;;;;;6.13;2.30;;;;;;;;;;4979471;28;20385;-68
2022/07/02 03:14:30;;;;;;;4.10;2.08;;;;;;;;;;4952721;28;20074;-69
2022/07/02 03:17:15;;;;;;;3.88;1.80;;;;;;;;;;4949233;28;20038;-69
2022/07/02 03:20:02;;;;;;;2.97;1.90;;;;;;;;;;4962818;28;20409;-69
2022/07/02 03:22:47;;;;;;;9.82;2.58;;;;;;;;;;4952517;28;20093;-69
2022/07/02 03:25:33;;;;;;;5.07;2.17;;;;;;;;;;4952583;28;20031;-69
2022/07/02 03:28:18;;;;;;;2.90;1.85;;;;;;;;;;4987323;28;20025;-73
2022/07/02 03:31:04;;;;;;;2.65;1.77;;;;;;;;;;4956126;28;20078;-74
2022/07/02 03:33:50;;;;;;;3.42;2.08;;;;;;;;;;4981343;28;20023;-74
2022/07/02 03:36:36;;;;;;;4.25;1.98;;;;;;;;;;4982782;28;20074;-73
2022/07/02 03:39:21;;;;;;;7.95;2.58;;;;;;;;;;4981362;28;20028;-73
2022/07/02 03:42:07;;;;;;;3.50;1.75;;;;;;;;;;4952862;28;20096;-75
2022/07/02 03:44:52;;;;;;;2.08;1.60;;;;;;;;;;4989915;28;20024;-68
2022/07/02 03:47:39;;;;;;;2.92;1.88;;;;;;;;;;5021877;28;20402;-74
2022/07/02 03:50:24;;;;;;;4.65;1.95;;;;;;;;;;4949323;28;20560;-73
2022/07/02 03:53:10;;;;;;;3.35;1.92;;;;;;;;;;4947161;28;20057;-73
2022/07/02 03:55:56;;;;;;;3.90;2.30;;;;;;;;;;4967045;28;20023;-72
2022/07/02 03:58:41;;;;;;;3.78;2.40;;;;;;;;;;4948749;28;20109;-74
2022/07/02 04:01:27;;;;;;;2.35;2.08;;;;;;;;;;4940736;28;20132;-74
2022/07/02 04:04:12;;;;;;;4.70;2.00;;;;;;;;;;4967358;28;20148;-83
2022/07/02 04:06:58;;;;;;;6.00;2.28;;;;;;;;;;4949831;28;20080;-68
2022/07/02 04:09:44;;;;;;;3.85;2.05;;;;;;;;;;4973697;28;20523;-69
2022/07/02 04:12:30;;;;;;;2.97;1.73;;;;;;;;;;4950156;28;20118;-70
2022/07/02 04:15:16;;;;;;;5.35;2.08;;;;;;;;;;4952637;28;20046;-69
2022/07/02 04:18:01;;;;;;;4.97;1.70;;;;;;;;;;4961337;28;20537;-67
2022/07/02 04:20:47;;;;;;;2.70;1.95;;;;;;;;;;4949535;28;20031;-85
2022/07/02 04:23:32;;;;;;;4.80;2.08;;;;;;;;;;4940935;28;20031;-72
2022/07/02 04:26:18;;;;;;;5.10;1.88;;;;;;;;;;4965218;28;20401;-72
2022/07/02 04:29:03;;;;;;;3.67;2.33;;;;;;;;;;4948503;28;20057;-72
2022/07/02 04:31:49;;;;;;;5.13;1.90;;;;;;;;;;4950499;28;20058;-72
2022/07/02 04:34:35;;;;;;;3.63;1.90;;;;;;;;;;4979075;28;20296;-71
2022/07/02 04:37:20;;;;;;;5.32;2.22;;;;;;;;;;4947262;28;20036;-72
2022/07/02 04:40:06;;;;;;;3.70;2.10;;;;;;;;;;4960473;28;20046;-69
2022/07/02 04:42:52;;;;;;;5.22;1.90;;;;;;;;;;5000584;28;20023;-85
2022/07/02 04:45:37;;;;;;;3.92;1.83;;;;;;;;;;4978938;28;20028;-87
2022/07/02 04:48:23;;;;;;;5.82;2.60;;;;;;;;;;4953953;28;20051;-87
2022/07/02 04:51:09;;;;;;;4.63;2.10;;;;;;;;;;4983789;28;20037;-87
2022/07/02 04:53:54;;;;;;;3.75;2.10;;;;;;;;;;4945215;28;20051;-85
2022/07/02 04:56:40;;;;;;;3.80;2.38;;;;;;;;;;4945083;28;20039;-73
2022/07/02 04:59:25;;;;;;;2.83;1.92;;;;;;;;;;4945250;28;20440;-71
2022/07/02 05:02:11;;;;;;;4.35;2.30;;;;;;;;;;4950167;28;20031;-74
2022/07/02 05:04:57;;;;;;;3.70;2.35;;;;;;;;;;4953978;28;20415;-73
2022/07/02 05:07:42;;;;;;;4.40;2.55;;;;;;;;;;4951791;28;20120;-73
2022/07/02 05:10:28;;;;;;;4.28;2.45;;;;;;;;;;4952344;28;20106;-73
2022/07/02 05:13:14;;;;;;;3.05;2.22;;;;;;;;;;4954506;28;20039;-73
2022/07/02 05:15:59;;;;;;;6.13;3.00;;;;;;;;;;4951765;28;20367;-72
2022/07/02 05:18:45;;;;;;;3.60;2.55;;;;;;;;;;4944765;28;20175;-74
2022/07/02 05:21:30;;;;;;;3.85;2.50;;;;;;;;;;4965761;28;20031;-75
2022/07/02 05:24:16;;;;;;;6.32;2.20;;;;;;;;;;4948584;28;20031;-74
2022/07/02 05:27:02;;;;;;;4.82;2.20;;;;;;;;;;4955331;28;20398;-76
2022/07/02 05:29:48;;;;;;;3.97;2.20;;;;;;;;;;4952769;28;20027;-74
2022/07/02 05:32:33;;;;;;;4.47;2.50;;;;;;;;;;4984319;28;20506;-74
2022/07/02 05:35:19;;;;;;;3.80;2.33;;;;;;;;;;4951856;28;20106;-75
2022/07/02 05:38:04;;;;;;;2.60;2.10;;;;;;;;;;4951719;28;20364;-69
2022/07/02 05:40:50;;;;;;;3.38;2.35;;;;;;;;;;4954671;28;20081;-71
2022/07/02 05:43:35;;;;;;;5.00;1.92;;;;;;;;;;4950019;28;20121;-69
2022/07/02 05:46:21;;;;;;;4.07;1.95;;;;;;;;;;4961563;28;20028;-69
2022/07/02 05:49:06;;;;;;;3.22;1.98;;;;;;;;;;4974096;28;20044;-69
2022/07/02 05:51:52;;;;;;;6.20;2.10;;;;;;;;;;4951258;28;20039;-69
2022/07/02 05:54:37;;;;;;;5.88;3.40;;;;;;;;;;4951077;28;20482;-73
2022/07/02 05:57:23;;;;;;;3.75;1.90;;;;;;;;;;5013326;28;20036;-76
2022/07/02 06:00:10;;;;;;;5.10;1.80;;;;;;;;;;4974634;28;20493;-75
2022/07/02 06:02:55;;;;;;;2.10;1.60;;;;;;;;;;4951751;28;20047;-74
2022/07/02 06:08:45;;;;;;;3.70;1.52;;;;;;;;;;4958902;28;20032;-75
2022/07/02 06:11:30;;;;;;;1.60;1.50;;;;;;;;;;4950876;28;20110;-73
2022/07/02 06:14:16;;;;;;;4.03;1.92;;;;;;;;;;4952503;28;20031;-73
2022/07/02 06:17:02;;;;;;;1.35;1.13;;;;;;;;;;4967482;28;20028;-72
2022/07/02 06:19:48;;;;;;;1.98;1.13;;;;;;;;;;4971933;28;20101;-74
2022/07/02 06:22:34;;;;;;;2.83;1.42;;;;;;;;;;4965150;28;20110;-74
2022/07/02 06:25:19;;;;;;;1.17;1.00;;;;;;;;;;4951428;28;20023;-73
2022/07/02 06:28:05;;;;;;;3.30;1.08;;;;;;;;;;5001767;28;20501;-74
2022/07/02 06:30:50;;;;;;;2.42;1.20;;;;;;;;;;4949168;28;20035;-69
2022/07/02 06:33:36;;;;;;;1.95;0.98;;;;;;;;;;4961259;28;20076;-77
2022/07/02 06:36:24;;;;;;;4.22;1.45;;;;;;;;;;4952671;28;20031;-75
2022/07/02 06:39:09;;;;;;;3.40;1.50;;;;;;;;;;4951135;28;20108;-77
2022/07/02 06:44:59;;;;;;;2.22;1.17;;;;;;;;;;4948056;28;20031;-76
2022/07/02 06:47:45;;;;;;;1.23;1.00;;;;;;;;;;4961079;28;20035;-73
2022/07/02 06:50:31;;;;;;;2.60;1.08;;;;;;;;;;4958654;28;20077;-86
2022/07/02 06:53:16;;;;;;;5.22;1.08;;;;;;;;;;4951728;28;20058;-84
2022/07/02 06:56:02;;;;;;;4.55;1.23;;;;;;;;;;4978575;28;20032;-84
2022/07/02 06:58:47;;;;;;;2.05;1.00;;;;;;;;;;5041074;28;20096;-84
2022/07/02 07:01:33;;;;;;;2.35;1.27;;;;;;;;;;4951114;28;20395;-84
2022/07/02 07:04:18;;;;;;;1.35;0.90;;;;;;;;;;4965417;28;20409;-84
2022/07/02 07:07:05;;;;;;;5.40;1.23;;;;;;;;;;4944314;28;20101;-73
2022/07/02 07:09:51;;;;;;;2.33;0.93;;;;;;;;;;4952193;28;20034;-74
2022/07/02 07:12:37;;;;;;;0.85;0.80;;;;;;;;;;4949674;28;20181;-75
2022/07/02 07:15:22;;;;;;;0.80;0.80;;;;;;;;;;4949782;28;20024;-75
2022/07/02 07:18:08;;;;;;;1.60;1.20;;;;;;;;;;4949304;28;20031;-74
2022/07/02 07:20:53;;;;;;;2.85;1.20;;;;;;;;;;4981061;28;20036;-74
2022/07/02 07:23:39;;;;;;;1.70;0.88;;;;;;;;;;4951632;28;20520;-83
2022/07/02 07:26:25;;;;;;;4.63;1.00;;;;;;;;;;4970808;28;20036;-84
2022/07/02 07:29:10;;;;;;;2.45;1.00;;;;;;;;;;4951816;28;20106;-73
2022/07/02 07:31:56;;;;;;;1.60;0.90;;;;;;;;;;4949340;28;20081;-73
2022/07/02 07:34:41;;;;;;;5.85;1.00;;;;;;;;;;4956543;28;20024;-73
2022/07/02 07:37:27;;;;;;;1.25;0.90;;;;;;;;;;4981842;28;20460;-74
2022/07/02 07:40:12;;;;;;;2.53;1.10;;;;;;;;;;4942152;28;20019;-72
2022/07/02 07:42:58;;;;;;;1.58;0.93;;;;;;;;;;4943677;28;20152;-71
2022/07/02 07:45:44;;;;;;;2.88;0.80;;;;;;;;;;4976471;28;20023;-71
2022/07/02 07:48:29;;;;;;;2.78;1.00;;;;;;;;;;4950190;28;20055;-71
2022/07/02 07:51:15;;;;;;;2.15;0.80;;;;;;;;;;4948157;28;20066;-70
2022/07/02 07:54:00;;;;;;;1.55;0.90;;;;;;;;;;4945861;28;20028;-69
2022/07/02 07:56:46;;;;;;;1.52;0.80;;;;;;;;;;4951038;28;20482;-72
2022/07/02 07:59:31;;;;;;;1.55;1.10;;;;;;;;;;4958261;28;20490;-70
2022/07/02 08:02:17;;;;;;;3.13;0.82;;;;;;;;;;4957499;28;20034;-61
2022/07/02 08:05:03;;;;;;;1.67;1.05;;;;;;;;;;5013789;28;20099;-68
2022/07/02 08:07:48;;;;;;;1.85;1.02;;;;;;;;;;4950488;28;20031;-71
2022/07/02 08:10:34;;;;;;;1.35;0.80;;;;;;;;;;4945173;28;20482;-69
2022/07/02 08:13:20;;;;;;;1.83;0.73;;;;;;;;;;4967722;28;20376;-69
2022/07/02 08:16:06;;;;;;;2.00;1.00;;;;;;;;;;4956603;28;20031;-68
2022/07/02 08:18:51;;;;;;;2.03;1.27;;;;;;;;;;4948101;28;20490;-68
2022/07/02 08:21:37;;;;;;;2.85;0.93;;;;;;;;;;4945290;28;20019;-63
2022/07/02 08:24:22;;;;;;;2.30;0.77;;;;;;;;;;4950215;28;20031;-66
2022/07/02 08:27:08;;;;;;;1.42;0.90;;;;;;;;;;4941355;28;20024;-68
2022/07/02 08:29:54;;;;;;;1.92;1.30;;;;;;;;;;4945046;28;20038;-64
2022/07/02 08:32:40;;;;;;;1.33;0.88;;;;;;;;;;4963604;28;20494;-64
2022/07/02 08:35:26;;;;;;;0.95;0.70;;;;;;;;;;4960579;28;20110;-65
2022/07/02 08:38:11;;;;;;;1.02;0.80;;;;;;;;;;5019392;28;20112;-70
2022/07/02 08:40:57;;;;;;;1.23;0.95;;;;;;;;;;4952207;28;20038;-68
2022/07/02 08:43:43;;;;;;;2.20;1.05;;;;;;;;;;4961190;28;20024;-75
2022/07/02 08:46:29;;;;;;;4.95;1.00;;;;;;;;;;4949775;28;20023;-64
2022/07/02 08:49:19;;;;;;;4.32;0.93;;;;;;;;;;4952814;28;20040;-68
2022/07/02 08:52:07;;;;;;;1.35;0.90;;;;;;;;;;4967644;28;20371;-67
2022/07/02 08:54:53;;;;;;;1.58;1.00;;;;;;;;;;4942278;28;20050;-69
2022/07/02 08:57:48;;;;;;;3.90;1.30;;;;;;;;;;4952994;28;20042;-77
2022/07/02 09:00:34;;;;;;;0.77;0.70;;;;;;;;;;4951285;28;20096;-63
2022/07/02 09:03:21;;;;;;;0.88;0.80;;;;;;;;;;4956851;28;20035;-62
2022/07/02 09:06:07;;;;;;;0.90;0.60;;;;;;;;;;4953130;28;20032;-63
2022/07/02 09:08:53;;;;;;;1.33;0.95;;;;;;;;;;4949962;28;20027;-66
2022/07/02 09:11:39;;;;;;;2.75;1.00;;;;;;;;;;4947773;28;20046;-66
2022/07/02 09:14:24;;;;;;;0.98;0.70;;;;;;;;;;4959518;28;20073;-66
2022/07/02 09:17:11;;;;;;;1.65;0.98;;;;;;;;;;4951614;28;20027;-76
2022/07/02 09:19:56;;;;;;;1.35;0.60;;;;;;;;;;4952497;28;20069;-68
2022/07/02 09:22:43;;;;;;;3.33;1.00;;;;;;;;;;4973759;28;20088;-67
2022/07/02 09:25:30;;;;;;;1.98;0.60;;;;;;;;;;4947250;28;20154;-69
2022/07/02 09:28:16;;;;;;;1.05;0.70;;;;;;;;;;4952029;28;20089;-67
2022/07/02 09:31:03;;;;;;;1.17;0.90;;;;;;;;;;4949145;28;20035;-68
2022/07/02 09:33:49;;;;;;;1.27;0.75;;;;;;;;;;4975968;28;20062;-69
2022/07/02 09:36:36;;;;;;;1.73;0.93;;;;;;;;;;4955729;28;20031;-69
2022/07/02 09:39:29;;;;;;;2.35;0.95;;;;;;;;;;4959992;28;20042;-70
2022/07/02 09:42:24;;;;;;;1.85;0.65;;;;;;;;;;4951795;28;20032;-74
2022/07/02 09:45:10;;;;;;;0.75;0.73;;;;;;;;;;4948519;28;20031;-70
2022/07/02 09:48:01;;;;;;;1.45;0.95;;;;;;;;;;4992278;28;20047;-70
2022/07/02 09:50:46;;;;;;;1.15;0.90;;;;;;;;;;4948147;28;20106;-69
2022/07/02 09:53:32;;;;;;;1.55;0.60;;;;;;;;;;4953903;28;20076;-66
2022/07/02 09:56:22;;;;;;;0.75;0.75;;;;;;;;;;4953570;28;20059;-76
2022/07/02 09:59:12;;;;;;;1.15;0.90;;;;;;;;;;4957844;28;20024;-73
2022/07/02 10:01:58;;;;;;;2.92;0.80;;;;;;;;;;4963161;28;20027;-72
2022/07/02 10:04:44;;;;;;;1.02;0.82;;;;;;;;;;4951169;28;20339;-83
2022/07/02 10:07:29;;;;;;;2.33;1.08;;;;;;;;;;4960796;28;20059;-82
2022/07/02 10:10:15;;;;;;;3.40;1.23;;;;;;;;;;4961926;28;20467;-71
2022/07/02 10:13:01;;;;;;;1.05;0.73;;;;;;;;;;4968198;28;20454;-71
2022/07/02 10:15:46;;;;;;;2.80;0.93;;;;;;;;;;4948497;28;20054;-70
2022/07/02 10:18:32;;;;;;;1.98;0.90;;;;;;;;;;4982876;28;20067;-69
2022/07/02 10:21:18;;;;;;;1.35;0.95;;;;;;;;;;4961447;28;20034;-70
2022/07/02 10:24:05;;;;;;;1.63;0.85;;;;;;;;;;4956373;28;20050;-70
2022/07/02 10:26:51;;;;;;;2.63;1.02;;;;;;;;;;4951506;28;20027;-72
2022/07/02 10:29:38;;;;;;;1.27;0.90;;;;;;;;;;4951343;28;20038;-75
2022/07/02 10:32:23;;;;;;;3.58;0.63;;;;;;;;;;4956365;28;20047;-67
2022/07/02 10:35:14;;;;;;;0.65;0.60;;;;;;;;;;4956115;28;20080;-68
2022/07/02 10:38:00;;;;;;;2.08;1.00;;;;;;;;;;4954454;28;20440;-67
2022/07/02 10:40:47;;;;;;;3.85;1.08;;;;;;;;;;4951167;28;20023;-68
2022/07/02 10:43:34;;;;;;;0.80;0.60;;;;;;;;;;4948568;28;20034;-67
2022/07/02 10:46:19;;;;;;;3.33;1.00;;;;;;;;;;4948603;28;20173;-72
2022/07/02 10:49:05;;;;;;;3.15;1.20;;;;;;;;;;4950396;28;20059;-71
2022/07/02 10:51:53;;;;;;;1.10;0.60;;;;;;;;;;4950865;28;20104;-82
2022/07/02 10:54:42;;;;;;;1.08;0.70;;;;;;;;;;4953875;28;20028;-74
2022/07/02 10:57:28;;;;;;;0.90;0.70;;;;;;;;;;4946074;28;20031;-80
2022/07/02 11:00:25;;;;;;;3.65;0.80;;;;;;;;;;4947257;28;20028;-79
2022/07/02 11:03:12;;;;;;;0.70;0.68;;;;;;;;;;4939376;28;20395;-79
2022/07/02 11:05:59;;;;;;;1.42;1.02;;;;;;;;;;4979565;28;20037;-83
2022/07/02 11:08:52;;;;;;;1.52;0.90;;;;;;;;;;4966408;28;20023;-68
2022/07/02 11:11:39;;;;;;;0.82;0.70;;;;;;;;;;4965242;28;20046;-68
2022/07/02 11:14:26;;;;;;;0.77;0.77;;;;;;;;;;4962511;28;20386;-65
2022/07/02 11:17:18;;;;;;;2.13;1.10;;;;;;;;;;4954452;28;20385;-66
2022/07/02 11:20:04;;;;;;;2.60;0.90;;;;;;;;;;4954286;28;20081;-66
2022/07/02 11:22:50;;;;;;;3.28;1.00;;;;;;;;;;4949703;28;20486;-69
2022/07/02 11:25:35;;;;;;;2.47;1.20;;;;;;;;;;4952563;28;20671;-67
2022/07/02 11:28:21;;;;;;;6.00;1.80;;;;;;;;;;4950635;28;20043;-69
2022/07/02 11:31:07;;;;;;;9.35;2.00;;;;;;;;;;4937303;28;20023;-69
2022/07/02 11:33:54;;;;;;;1.85;0.70;;;;;;;;;;4969762;28;20474;-77
2022/07/02 11:36:40;;;;;;;2.22;0.90;;;;;;;;;;4971277;28;20471;-77
2022/07/02 11:39:26;;;;;;;0.75;0.55;;;;;;;;;;4968624;28;20454;-78
2022/07/02 11:42:11;;;;;;;1.92;0.70;;;;;;;;;;4960034;28;20365;-74
2022/07/02 11:45:00;;;;;;;3.22;1.30;;;;;;;;;;4978881;28;20074;-76
2022/07/02 11:47:47;;;;;;;1.35;0.95;;;;;;;;;;4954657;28;20061;-75
2022/07/02 11:50:33;;;;;;;1.35;1.00;;;;;;;;;;4953993;28;20118;-78
2022/07/02 11:53:18;;;;;;;2.03;0.88;;;;;;;;;;4952698;28;20035;-77
2022/07/02 11:56:04;;;;;;;1.45;1.00;;;;;;;;;;4951160;28;20419;-77
2022/07/02 11:58:50;;;;;;;1.95;0.90;;;;;;;;;;4950571;28;20020;-77
2022/07/02 12:01:37;;;;;;;1.40;0.80;;;;;;;;;;4943899;28;20089;-77
2022/07/02 12:04:23;;;;;;;1.27;0.80;;;;;;;;;;5010312;28;20107;-74
2022/07/02 12:07:08;;;;;;;2.25;1.20;;;;;;;;;;4955221;28;20068;-74
2022/07/02 12:09:54;;;;;;;1.55;0.98;;;;;;;;;;4945456;28;20423;-74
2022/07/02 12:12:40;;;;;;;1.13;0.82;;;;;;;;;;4963697;28;20042;-74
2022/07/02 12:15:25;;;;;;;3.25;0.88;;;;;;;;;;4966824;28;20445;-74
2022/07/02 12:18:15;;;;;;;1.20;0.80;;;;;;;;;;4974505;28;20027;-77
2022/07/02 12:21:11;;;;;;;1.30;0.80;;;;;;;;;;4949746;28;20106;-77
2022/07/02 12:23:57;;;;;;;4.05;0.80;;;;;;;;;;4966586;28;20023;-73
2022/07/02 12:26:44;;;;;;;5.32;1.17;;;;;;;;;;4952787;28;20030;-75
2022/07/02 12:32:38;;;;;;;1.08;0.88;;;;;;;;;;4951687;28;20043;-73
2022/07/02 12:35:23;;;;;;;3.70;0.85;;;;;;;;;;4998861;28;20031;-74
2022/07/02 12:38:09;;;;;;;3.83;0.70;;;;;;;;;;4966770;28;20498;-75
2022/07/02 12:41:00;;;;;;;3.83;1.48;;;;;;;;;;4955962;28;20110;-80
2022/07/02 12:43:53;;;;;;;0.88;0.88;;;;;;;;;;4966746;28;20511;-82
2022/07/02 12:46:43;;;;;;;0.65;0.65;;;;;;;;;;4995633;28;20020;-79
2022/07/02 12:49:28;;;;;;;1.90;0.85;;;;;;;;;;4968002;28;20142;-79
2022/07/02 12:52:14;;;;;;;2.13;1.00;;;;;;;;;;4961311;28;20402;-79
2022/07/02 12:55:00;;;;;;;0.80;0.75;;;;;;;;;;4959089;28;20355;-83
2022/07/02 12:57:45;;;;;;;3.20;1.20;;;;;;;;;;4949455;28;20034;-74
2022/07/02 13:00:31;;;;;;;1.20;0.90;;;;;;;;;;5004888;28;20106;-75
2022/07/02 13:03:18;;;;;;;1.13;0.80;;;;;;;;;;4941649;28;20031;-75
2022/07/02 13:06:04;;;;;;;2.78;1.00;;;;;;;;;;4960799;28;20023;-75
2022/07/02 13:08:50;;;;;;;1.60;1.08;;;;;;;;;;4949752;28;20371;-75
2022/07/02 13:11:36;;;;;;;1.58;0.82;;;;;;;;;;4950726;28;20043;-75
2022/07/02 13:14:21;;;;;;;2.08;0.80;;;;;;;;;;4949072;28;20039;-74
2022/07/02 13:17:07;;;;;;;1.27;0.90;;;;;;;;;;4998355;28;20056;-73
2022/07/02 13:19:52;;;;;;;1.27;0.85;;;;;;;;;;4959328;28;20035;-75
2022/07/02 13:22:39;;;;;;;2.00;0.90;;;;;;;;;;4942710;28;20024;-75
2022/07/02 13:25:24;;;;;;;1.90;1.20;;;;;;;;;;4967482;28;20029;-76
2022/07/02 13:28:10;;;;;;;4.03;1.20;;;;;;;;;;4973093;28;20110;-74
2022/07/02 13:30:56;;;;;;;2.33;0.93;;;;;;;;;;4954545;28;20027;-74
2022/07/02 13:33:41;;;;;;;0.88;0.73;;;;;;;;;;4956115;28;20122;-74
2022/07/02 13:36:27;;;;;;;2.15;0.80;;;;;;;;;;4968827;28;20034;-74
2022/07/02 13:39:12;;;;;;;1.85;0.80;;;;;;;;;;4964967;28;20042;-74
2022/07/02 13:41:58;;;;;;;1.92;1.17;;;;;;;;;;4952325;28;20125;-73
2022/07/02 13:44:44;;;;;;;2.20;0.93;;;;;;;;;;4945671;28;20027;-74
2022/07/02 13:47:30;;;;;;;2.58;0.90;;;;;;;;;;4955253;28;20114;-74
2022/07/02 13:50:43;;;;;;;3.17;0.80;;;;;;;;;;4956453;28;20058;-74
2022/07/02 13:53:29;;;;;;;3.08;1.00;;;;;;;;;;4965403;28;20031;-84
2022/07/02 13:56:14;;;;;;;1.80;0.90;;;;;;;;;;4975461;28;20027;-83
2022/07/02 13:59:01;;;;;;;1.20;1.10;;;;;;;;;;4950895;28;20494;-84
2022/07/02 14:01:47;;;;;;;4.43;1.27;;;;;;;;;;4948064;28;20502;-82
2022/07/02 14:04:32;;;;;;;1.25;0.85;;;;;;;;;;4952459;28;20023;-82
2022/07/02 14:07:18;;;;;;;1.60;0.77;;;;;;;;;;4990490;28;20023;-83
2022/07/02 14:10:04;;;;;;;1.23;0.90;;;;;;;;;;4949069;28;20030;-75
2022/07/02 14:12:49;;;;;;;2.05;0.90;;;;;;;;;;4946845;28;20530;-83
2022/07/02 14:15:35;;;;;;;2.63;0.85;;;;;;;;;;4982184;28;20021;-83
2022/07/02 14:18:20;;;;;;;1.20;0.73;;;;;;;;;;4955087;28;20118;-82
2022/07/02 14:21:06;;;;;;;3.05;0.88;;;;;;;;;;4987556;28;20025;-83
2022/07/02 14:23:52;;;;;;;1.13;1.02;;;;;;;;;;4951282;28;20023;-82
2022/07/02 14:26:37;;;;;;;2.40;0.82;;;;;;;;;;4986522;28;20039;-83
2022/07/02 14:29:23;;;;;;;3.47;0.90;;;;;;;;;;4950984;28;20398;-74
2022/07/02 14:32:08;;;;;;;5.63;1.00;;;;;;;;;;4951725;28;20031;-78
2022/07/02 14:34:54;;;;;;;2.10;0.85;;;;;;;;;;4952931;28;20020;-78
2022/07/02 14:37:39;;;;;;;1.20;0.80;;;;;;;;;;4985866;28;20095;-78
2022/07/02 14:40:25;;;;;;;1.33;0.70;;;;;;;;;;5009521;28;20033;-80
2022/07/02 14:43:11;;;;;;;1.50;0.88;;;;;;;;;;4956752;28;20024;-80
2022/07/02 14:45:56;;;;;;;3.13;0.90;;;;;;;;;;4955343;28;20027;-74
2022/07/02 14:48:42;;;;;;;2.05;0.73;;;;;;;;;;4964451;28;20091;-79
2022/07/02 14:51:28;;;;;;;0.80;0.77;;;;;;;;;;4952887;28;20547;-78
2022/07/02 14:54:13;;;;;;;2.58;1.00;;;;;;;;;;5012933;28;20021;-79
2022/07/02 14:56:59;;;;;;;1.65;1.10;;;;;;;;;;4952603;28;20449;-79
2022/07/02 14:59:44;;;;;;;4.43;0.98;;;;;;;;;;4947817;28;20035;-79
2022/07/02 15:02:30;;;;;;;4.85;1.85;;;;;;;;;;4954157;28;20397;-78
2022/07/02 15:05:16;;;;;;;2.78;1.38;;;;;;;;;;4953117;28;20028;-73
2022/07/02 15:08:01;;;;;;;1.98;1.00;;;;;;;;;;4950948;28;20110;-75
2022/07/02 15:10:47;;;;;;;2.95;1.27;;;;;;;;;;4964690;28;20039;-74
2022/07/02 15:16:50;;;;;;;2.95;0.90;;;;;;;;;;4932297;28;20039;-74
2022/07/02 15:19:36;;;;;;;2.50;0.90;;;;;;;;;;4952778;28;20031;-74
2022/07/02 15:22:23;;;;;;;1.95;0.80;;;;;;;;;;4958247;28;20124;-76
2022/07/02 15:25:09;;;;;;;2.10;0.90;;;;;;;;;;4951784;28;20077;-74
2022/07/02 15:27:59;;;;;;;2.00;0.70;;;;;;;;;;4950534;28;20031;-73
2022/07/02 15:30:45;;;;;;;1.77;0.90;;;;;;;;;;4968647;28;20470;-74
2022/07/02 15:33:33;;;;;;;1.08;0.80;;;;;;;;;;4949099;28;20043;-74
2022/07/02 15:36:19;;;;;;;1.60;0.90;;;;;;;;;;4943699;28;20035;-74
2022/07/02 15:39:05;;;;;;;3.83;1.30;;;;;;;;;;4950742;28;20016;-74
2022/07/02 15:41:52;;;;;;;1.33;0.90;;;;;;;;;;4959957;28;20035;-83
2022/07/02 15:44:39;;;;;;;3.13;0.90;;;;;;;;;;4939010;28;20036;-74
2022/07/02 15:47:24;;;;;;;1.23;1.13;;;;;;;;;;4948342;28;20394;-73
2022/07/02 15:50:10;;;;;;;1.15;1.00;;;;;;;;;;4950916;28;20450;-74
2022/07/02 15:53:04;;;;;;;1.27;0.90;;;;;;;;;;4963007;28;20490;-73
2022/07/02 15:55:53;;;;;;;1.83;0.80;;;;;;;;;;4946943;28;20449;-73
2022/07/02 15:58:49;;;;;;;1.35;1.02;;;;;;;;;;4949568;28;20069;-74
2022/07/02 16:01:35;;;;;;;1.92;1.08;;;;;;;;;;4963997;28;20031;-79
2022/07/02 16:04:28;;;;;;;2.15;1.08;;;;;;;;;;4946735;28;20058;-74
2022/07/02 16:07:14;;;;;;;1.27;1.17;;;;;;;;;;4950339;28;20517;-73
2022/07/02 16:10:00;;;;;;;2.08;1.08;;;;;;;;;;4941012;28;20027;-74
2022/07/02 16:12:47;;;;;;;2.30;0.90;;;;;;;;;;4959257;28;20047;-74
2022/07/02 16:15:33;;;;;;;1.63;1.10;;;;;;;;;;4950091;28;20036;-73
2022/07/02 16:18:18;;;;;;;3.05;1.33;;;;;;;;;;4950537;28;20063;-76
2022/07/02 16:21:04;;;;;;;3.08;1.45;;;;;;;;;;4961638;28;20065;-74
2022/07/02 16:23:50;;;;;;;2.17;1.17;;;;;;;;;;4941325;28;20023;-73
2022/07/02 16:26:35;;;;;;;1.60;0.80;;;;;;;;;;4949194;28;20471;-73
2022/07/02 16:29:22;;;;;;;1.08;0.80;;;;;;;;;;4949341;28;20085;-74
2022/07/02 16:32:08;;;;;;;17.55;13.45;;;;;;;;;;4974030;28;20061;-72
2022/07/02 16:35:02;;;;;;;3.60;2.70;;;;;;;;;;4951503;28;20100;-73
2022/07/02 16:37:48;;;;;;;3.80;1.73;;;;;;;;;;4948641;28;20034;-74
2022/07/02 16:40:33;;;;;;;3.53;1.50;;;;;;;;;;4959682;28;20081;-76
2022/07/02 16:43:20;;;;;;;1.25;1.10;;;;;;;;;;4964980;28;20034;-76
2022/07/02 16:46:07;;;;;;;1.70;1.30;;;;;;;;;;4944227;28;20136;-76
2022/07/02 16:48:54;;;;;;;2.45;1.17;;;;;;;;;;4948492;28;20066;-77
2022/07/02 16:51:41;;;;;;;0.80;0.80;;;;;;;;;;4965909;28;20036;-75